sensor_id;sensor_type;location;lat;lon;timestamp;temperature;humidity
59923;DHT22;45778;51.142;3.732;2023-06-19T00:01:59;19.20;99.90
59923;DHT22;45778;51.142;3.732;2023-06-19T00:04:25;19.30;99.90
59923;DHT22;45778;51.142;3.732;2023-06-19T00:06:52;19.30;99.90
59923;DHT22;45778;51.142;3.732;2023-06-19T00:09:18;19.30;99.90
59923;DHT22;45778;51.142;3.732;2023-06-19T00:11:44;19.30;99.90
59923;DHT22;45778;51.142;3.732;2023-06-19T00:14:10;19.20;99.90
59923;DHT22;45778;51.142;3.732;2023-06-19T00:16:35;19.20;99.90
59923;DHT22;45778;51.142;3.732;2023-06-19T00:19:01;19.30;99.90
59923;DHT22;45778;51.142;3.732;2023-06-19T00:21:29;19.20;99.90
59923;DHT22;45778;51.142;3.732;2023-06-19T00:23:55;19.20;99.90
59923;DHT22;45778;51.142;3.732;2023-06-19T00:26:21;19.20;99.90
59923;DHT22;45778;51.142;3.732;2023-06-19T00:28:53;19.20;99.90
59923;DHT22;45778;51.142;3.732;2023-06-19T00:31:19;19.20;99.90
59923;DHT22;45778;51.142;3.732;2023-06-19T00:33:45;19.30;99.90
59923;DHT22;45778;51.142;3.732;2023-06-19T00:36:15;19.30;99.90
59923;DHT22;45778;51.142;3.732;2023-06-19T00:38:42;19.30;99.90
59923;DHT22;45778;51.142;3.732;2023-06-19T00:41:08;19.30;99.90
59923;DHT22;45778;51.142;3.732;2023-06-19T00:43:34;19.30;99.90
59923;DHT22;45778;51.142;3.732;2023-06-19T00:46:00;19.30;99.90
59923;DHT22;45778;51.142;3.732;2023-06-19T00:48:27;19.30;99.90
59923;DHT22;45778;51.142;3.732;2023-06-19T00:50:54;19.30;99.90
59923;DHT22;45778;51.142;3.732;2023-06-19T00:53:22;19.40;99.90
59923;DHT22;45778;51.142;3.732;2023-06-19T00:55:48;19.50;99.90
59923;DHT22;45778;51.142;3.732;2023-06-19T00:58:17;19.40;99.90
59923;DHT22;45778;51.142;3.732;2023-06-19T01:00:43;19.50;99.90
59923;DHT22;45778;51.142;3.732;2023-06-19T01:03:09;19.50;99.90
59923;DHT22;45778;51.142;3.732;2023-06-19T01:05:35;19.50;99.90
59923;DHT22;45778;51.142;3.732;2023-06-19T01:08:10;19.40;99.90
59923;DHT22;45778;51.142;3.732;2023-06-19T01:10:43;19.50;99.90
59923;DHT22;45778;51.142;3.732;2023-06-19T01:13:32;19.40;99.90
59923;DHT22;45778;51.142;3.732;2023-06-19T01:16:01;19.40;99.90
59923;DHT22;45778;51.142;3.732;2023-06-19T01:18:28;19.30;99.90
59923;DHT22;45778;51.142;3.732;2023-06-19T01:20:55;19.30;99.90
59923;DHT22;45778;51.142;3.732;2023-06-19T01:23:20;19.30;99.90
59923;DHT22;45778;51.142;3.732;2023-06-19T01:25:46;19.20;99.90
59923;DHT22;45778;51.142;3.732;2023-06-19T01:28:12;19.20;99.90
59923;DHT22;45778;51.142;3.732;2023-06-19T01:30:40;19.20;99.90
59923;DHT22;45778;51.142;3.732;2023-06-19T01:33:24;19.20;99.90
59923;DHT22;45778;51.142;3.732;2023-06-19T01:35:52;19.10;99.90
59923;DHT22;45778;51.142;3.732;2023-06-19T01:38:20;19.10;99.90
59923;DHT22;45778;51.142;3.732;2023-06-19T01:40:48;19.20;99.90
59923;DHT22;45778;51.142;3.732;2023-06-19T01:43:16;19.20;99.90
59923;DHT22;45778;51.142;3.732;2023-06-19T01:45:42;19.20;99.90
59923;DHT22;45778;51.142;3.732;2023-06-19T01:48:08;19.30;99.90
59923;DHT22;45778;51.142;3.732;2023-06-19T01:50:34;19.30;99.90
59923;DHT22;45778;51.142;3.732;2023-06-19T01:53:00;19.20;99.90
59923;DHT22;45778;51.142;3.732;2023-06-19T01:55:25;19.20;99.90
59923;DHT22;45778;51.142;3.732;2023-06-19T01:57:51;19.20;99.90
59923;DHT22;45778;51.142;3.732;2023-06-19T02:00:17;19.20;99.90
59923;DHT22;45778;51.142;3.732;2023-06-19T02:02:43;19.20;99.90
59923;DHT22;45778;51.142;3.732;2023-06-19T02:05:09;19.10;99.90
59923;DHT22;45778;51.142;3.732;2023-06-19T02:07:35;19.10;99.90
59923;DHT22;45778;51.142;3.732;2023-06-19T02:10:01;19.10;99.90
59923;DHT22;45778;51.142;3.732;2023-06-19T02:12:27;19.00;99.90
59923;DHT22;45778;51.142;3.732;2023-06-19T02:14:52;18.90;99.90
59923;DHT22;45778;51.142;3.732;2023-06-19T02:17:18;18.90;99.90
59923;DHT22;45778;51.142;3.732;2023-06-19T02:19:44;18.80;99.90
59923;DHT22;45778;51.142;3.732;2023-06-19T02:22:09;18.70;99.90
59923;DHT22;45778;51.142;3.732;2023-06-19T02:24:35;18.70;99.90
59923;DHT22;45778;51.142;3.732;2023-06-19T02:27:02;18.60;99.90
59923;DHT22;45778;51.142;3.732;2023-06-19T02:29:28;18.60;99.90
59923;DHT22;45778;51.142;3.732;2023-06-19T02:31:55;18.60;99.90
59923;DHT22;45778;51.142;3.732;2023-06-19T02:34:21;18.60;99.90
59923;DHT22;45778;51.142;3.732;2023-06-19T02:36:49;18.60;99.90
59923;DHT22;45778;51.142;3.732;2023-06-19T02:39:15;18.60;99.90
59923;DHT22;45778;51.142;3.732;2023-06-19T02:41:41;18.60;99.90
59923;DHT22;45778;51.142;3.732;2023-06-19T02:44:11;18.50;99.90
59923;DHT22;45778;51.142;3.732;2023-06-19T02:46:37;18.50;99.90
59923;DHT22;45778;51.142;3.732;2023-06-19T02:49:03;18.50;99.90
59923;DHT22;45778;51.142;3.732;2023-06-19T02:51:29;18.50;99.90
59923;DHT22;45778;51.142;3.732;2023-06-19T02:53:55;18.50;99.90
59923;DHT22;45778;51.142;3.732;2023-06-19T02:56:20;18.50;99.90
59923;DHT22;45778;51.142;3.732;2023-06-19T02:58:46;18.50;99.90
59923;DHT22;45778;51.142;3.732;2023-06-19T03:01:12;18.50;99.90
59923;DHT22;45778;51.142;3.732;2023-06-19T03:03:38;18.50;99.90
59923;DHT22;45778;51.142;3.732;2023-06-19T03:06:07;18.50;99.90
59923;DHT22;45778;51.142;3.732;2023-06-19T03:08:37;18.40;99.90
59923;DHT22;45778;51.142;3.732;2023-06-19T03:11:03;18.40;99.90
59923;DHT22;45778;51.142;3.732;2023-06-19T03:13:49;18.30;99.90
59923;DHT22;45778;51.142;3.732;2023-06-19T03:16:15;18.20;99.90
59923;DHT22;45778;51.142;3.732;2023-06-19T03:18:41;18.10;99.90
59923;DHT22;45778;51.142;3.732;2023-06-19T03:21:07;18.10;99.90
59923;DHT22;45778;51.142;3.732;2023-06-19T03:23:33;18.10;99.90
59923;DHT22;45778;51.142;3.732;2023-06-19T03:25:59;18.10;99.90
59923;DHT22;45778;51.142;3.732;2023-06-19T03:28:24;18.00;99.90
59923;DHT22;45778;51.142;3.732;2023-06-19T03:30:50;17.90;99.90
59923;DHT22;45778;51.142;3.732;2023-06-19T03:33:16;17.80;99.90
59923;DHT22;45778;51.142;3.732;2023-06-19T03:35:42;17.70;99.90
59923;DHT22;45778;51.142;3.732;2023-06-19T03:38:08;17.70;99.90
59923;DHT22;45778;51.142;3.732;2023-06-19T03:40:34;17.50;99.90
59923;DHT22;45778;51.142;3.732;2023-06-19T03:42:59;17.50;99.90
59923;DHT22;45778;51.142;3.732;2023-06-19T03:45:25;17.40;99.90
59923;DHT22;45778;51.142;3.732;2023-06-19T03:47:51;17.30;99.90
59923;DHT22;45778;51.142;3.732;2023-06-19T03:50:16;17.20;99.90
59923;DHT22;45778;51.142;3.732;2023-06-19T03:52:42;17.20;99.90
59923;DHT22;45778;51.142;3.732;2023-06-19T03:55:08;17.20;99.90
59923;DHT22;45778;51.142;3.732;2023-06-19T03:57:34;17.20;99.90
59923;DHT22;45778;51.142;3.732;2023-06-19T03:59:59;17.20;99.90
59923;DHT22;45778;51.142;3.732;2023-06-19T04:02:25;17.10;99.90
59923;DHT22;45778;51.142;3.732;2023-06-19T04:04:51;17.10;99.90
59923;DHT22;45778;51.142;3.732;2023-06-19T04:07:17;17.10;99.90
59923;DHT22;45778;51.142;3.732;2023-06-19T04:09:42;17.10;99.90
59923;DHT22;45778;51.142;3.732;2023-06-19T04:12:08;17.10;99.90
59923;DHT22;45778;51.142;3.732;2023-06-19T04:14:34;17.10;99.90
59923;DHT22;45778;51.142;3.732;2023-06-19T04:17:00;17.10;99.90
59923;DHT22;45778;51.142;3.732;2023-06-19T04:19:25;17.00;99.90
59923;DHT22;45778;51.142;3.732;2023-06-19T04:21:51;17.00;99.90
59923;DHT22;45778;51.142;3.732;2023-06-19T04:24:17;17.10;99.90
59923;DHT22;45778;51.142;3.732;2023-06-19T04:26:42;17.00;99.90
59923;DHT22;45778;51.142;3.732;2023-06-19T04:29:08;17.00;99.90
59923;DHT22;45778;51.142;3.732;2023-06-19T04:31:39;17.00;99.90
59923;DHT22;45778;51.142;3.732;2023-06-19T04:34:06;17.00;99.90
59923;DHT22;45778;51.142;3.732;2023-06-19T04:36:32;16.90;99.90
59923;DHT22;45778;51.142;3.732;2023-06-19T04:38:57;16.90;99.90
59923;DHT22;45778;51.142;3.732;2023-06-19T04:41:26;17.00;99.90
59923;DHT22;45778;51.142;3.732;2023-06-19T04:43:52;17.00;99.90
59923;DHT22;45778;51.142;3.732;2023-06-19T04:46:17;17.20;99.90
59923;DHT22;45778;51.142;3.732;2023-06-19T04:48:46;17.40;99.90
59923;DHT22;45778;51.142;3.732;2023-06-19T04:51:16;17.50;99.90
59923;DHT22;45778;51.142;3.732;2023-06-19T04:53:46;17.30;99.90
59923;DHT22;45778;51.142;3.732;2023-06-19T04:56:12;17.40;99.90
59923;DHT22;45778;51.142;3.732;2023-06-19T04:58:38;17.30;99.90
59923;DHT22;45778;51.142;3.732;2023-06-19T05:01:15;17.40;99.90
59923;DHT22;45778;51.142;3.732;2023-06-19T05:03:42;17.30;99.90
59923;DHT22;45778;51.142;3.732;2023-06-19T05:06:08;17.30;99.90
59923;DHT22;45778;51.142;3.732;2023-06-19T05:08:34;17.30;99.90
59923;DHT22;45778;51.142;3.732;2023-06-19T05:11:00;17.30;99.90
59923;DHT22;45778;51.142;3.732;2023-06-19T05:13:25;17.40;99.90
59923;DHT22;45778;51.142;3.732;2023-06-19T05:15:51;17.30;99.90
59923;DHT22;45778;51.142;3.732;2023-06-19T05:18:17;17.30;99.90
59923;DHT22;45778;51.142;3.732;2023-06-19T05:20:43;17.30;99.90
59923;DHT22;45778;51.142;3.732;2023-06-19T05:23:09;17.30;99.90
59923;DHT22;45778;51.142;3.732;2023-06-19T05:25:35;17.30;99.90
59923;DHT22;45778;51.142;3.732;2023-06-19T05:28:00;17.40;99.90
59923;DHT22;45778;51.142;3.732;2023-06-19T05:30:26;17.50;99.90
59923;DHT22;45778;51.142;3.732;2023-06-19T05:32:52;17.60;99.90
59923;DHT22;45778;51.142;3.732;2023-06-19T05:35:18;17.80;99.90
59923;DHT22;45778;51.142;3.732;2023-06-19T05:37:44;17.90;99.90
59923;DHT22;45778;51.142;3.732;2023-06-19T05:40:11;17.90;99.90
59923;DHT22;45778;51.142;3.732;2023-06-19T05:42:36;17.90;99.90
59923;DHT22;45778;51.142;3.732;2023-06-19T05:45:03;17.80;99.90
59923;DHT22;45778;51.142;3.732;2023-06-19T05:47:29;17.90;99.90
59923;DHT22;45778;51.142;3.732;2023-06-19T05:49:56;18.00;99.90
59923;DHT22;45778;51.142;3.732;2023-06-19T05:52:23;18.10;99.90
59923;DHT22;45778;51.142;3.732;2023-06-19T05:54:48;18.10;99.90
59923;DHT22;45778;51.142;3.732;2023-06-19T05:57:14;18.00;99.90
59923;DHT22;45778;51.142;3.732;2023-06-19T05:59:47;18.00;99.90
59923;DHT22;45778;51.142;3.732;2023-06-19T06:02:13;18.00;99.90
59923;DHT22;45778;51.142;3.732;2023-06-19T06:04:39;18.00;99.90
59923;DHT22;45778;51.142;3.732;2023-06-19T06:07:05;18.00;99.90
59923;DHT22;45778;51.142;3.732;2023-06-19T06:09:30;18.10;99.90
59923;DHT22;45778;51.142;3.732;2023-06-19T06:11:58;18.10;99.90
59923;DHT22;45778;51.142;3.732;2023-06-19T06:14:25;18.10;99.90
59923;DHT22;45778;51.142;3.732;2023-06-19T06:16:51;18.20;99.90
59923;DHT22;45778;51.142;3.732;2023-06-19T06:19:16;18.30;99.90
59923;DHT22;45778;51.142;3.732;2023-06-19T06:21:42;18.20;99.90
59923;DHT22;45778;51.142;3.732;2023-06-19T06:24:08;18.20;99.90
59923;DHT22;45778;51.142;3.732;2023-06-19T06:26:33;18.30;99.90
59923;DHT22;45778;51.142;3.732;2023-06-19T06:29:00;18.40;99.90
59923;DHT22;45778;51.142;3.732;2023-06-19T06:31:26;18.50;99.90
59923;DHT22;45778;51.142;3.732;2023-06-19T06:33:52;18.60;99.90
59923;DHT22;45778;51.142;3.732;2023-06-19T06:36:18;18.60;99.90
59923;DHT22;45778;51.142;3.732;2023-06-19T06:38:44;18.60;99.90
59923;DHT22;45778;51.142;3.732;2023-06-19T06:41:10;18.60;99.90
59923;DHT22;45778;51.142;3.732;2023-06-19T06:43:35;18.70;99.90
59923;DHT22;45778;51.142;3.732;2023-06-19T06:46:01;18.60;99.90
59923;DHT22;45778;51.142;3.732;2023-06-19T06:48:27;18.50;99.90
59923;DHT22;45778;51.142;3.732;2023-06-19T06:50:52;18.40;99.90
59923;DHT22;45778;51.142;3.732;2023-06-19T06:53:26;18.70;99.90
59923;DHT22;45778;51.142;3.732;2023-06-19T06:55:54;18.80;99.90
59923;DHT22;45778;51.142;3.732;2023-06-19T06:58:20;19.10;99.90
59923;DHT22;45778;51.142;3.732;2023-06-19T07:00:45;19.00;99.90
59923;DHT22;45778;51.142;3.732;2023-06-19T07:03:12;19.00;99.90
59923;DHT22;45778;51.142;3.732;2023-06-19T07:05:38;19.20;99.90
59923;DHT22;45778;51.142;3.732;2023-06-19T07:08:04;19.40;99.90
59923;DHT22;45778;51.142;3.732;2023-06-19T07:10:30;19.60;99.90
59923;DHT22;45778;51.142;3.732;2023-06-19T07:12:56;19.60;99.90
59923;DHT22;45778;51.142;3.732;2023-06-19T07:15:22;19.60;99.90
59923;DHT22;45778;51.142;3.732;2023-06-19T07:17:48;19.60;99.90
59923;DHT22;45778;51.142;3.732;2023-06-19T07:20:14;19.70;99.90
59923;DHT22;45778;51.142;3.732;2023-06-19T07:22:41;19.70;99.90
59923;DHT22;45778;51.142;3.732;2023-06-19T07:25:07;19.70;99.90
59923;DHT22;45778;51.142;3.732;2023-06-19T07:27:33;19.70;99.90
59923;DHT22;45778;51.142;3.732;2023-06-19T07:29:59;19.60;99.90
59923;DHT22;45778;51.142;3.732;2023-06-19T07:32:25;19.90;99.90
59923;DHT22;45778;51.142;3.732;2023-06-19T07:34:52;19.70;99.90
59923;DHT22;45778;51.142;3.732;2023-06-19T07:37:18;19.70;99.90
59923;DHT22;45778;51.142;3.732;2023-06-19T07:39:48;19.70;99.90
59923;DHT22;45778;51.142;3.732;2023-06-19T07:42:14;19.70;99.90
59923;DHT22;45778;51.142;3.732;2023-06-19T07:44:41;19.60;99.90
59923;DHT22;45778;51.142;3.732;2023-06-19T07:47:08;19.60;99.90
59923;DHT22;45778;51.142;3.732;2023-06-19T07:49:36;19.90;99.90
59923;DHT22;45778;51.142;3.732;2023-06-19T07:52:06;20.00;99.90
59923;DHT22;45778;51.142;3.732;2023-06-19T07:54:34;19.80;99.90
59923;DHT22;45778;51.142;3.732;2023-06-19T07:57:00;20.00;99.90
59923;DHT22;45778;51.142;3.732;2023-06-19T07:59:25;20.10;99.90
59923;DHT22;45778;51.142;3.732;2023-06-19T08:01:52;20.00;99.90
59923;DHT22;45778;51.142;3.732;2023-06-19T08:04:17;19.90;99.90
59923;DHT22;45778;51.142;3.732;2023-06-19T08:06:43;19.90;99.90
59923;DHT22;45778;51.142;3.732;2023-06-19T08:09:09;19.80;99.90
59923;DHT22;45778;51.142;3.732;2023-06-19T08:11:34;19.70;99.90
59923;DHT22;45778;51.142;3.732;2023-06-19T08:14:01;19.80;99.90
59923;DHT22;45778;51.142;3.732;2023-06-19T08:16:26;20.00;99.90
59923;DHT22;45778;51.142;3.732;2023-06-19T08:18:52;20.20;99.90
59923;DHT22;45778;51.142;3.732;2023-06-19T08:21:18;20.40;99.90
59923;DHT22;45778;51.142;3.732;2023-06-19T08:23:46;20.40;99.90
59923;DHT22;45778;51.142;3.732;2023-06-19T08:26:12;20.30;99.90
59923;DHT22;45778;51.142;3.732;2023-06-19T08:28:38;20.30;99.90
59923;DHT22;45778;51.142;3.732;2023-06-19T08:31:03;20.20;99.90
59923;DHT22;45778;51.142;3.732;2023-06-19T08:33:29;20.00;99.90
59923;DHT22;45778;51.142;3.732;2023-06-19T08:35:55;19.90;99.90
59923;DHT22;45778;51.142;3.732;2023-06-19T08:38:20;20.00;99.90
59923;DHT22;45778;51.142;3.732;2023-06-19T08:40:46;20.10;99.90
59923;DHT22;45778;51.142;3.732;2023-06-19T08:43:12;20.50;99.90
59923;DHT22;45778;51.142;3.732;2023-06-19T08:45:38;20.90;99.90
59923;DHT22;45778;51.142;3.732;2023-06-19T08:48:04;21.10;99.90
59923;DHT22;45778;51.142;3.732;2023-06-19T08:50:30;21.20;99.90
59923;DHT22;45778;51.142;3.732;2023-06-19T08:52:56;21.40;99.90
59923;DHT22;45778;51.142;3.732;2023-06-19T08:55:23;21.70;99.90
59923;DHT22;45778;51.142;3.732;2023-06-19T08:57:49;21.60;99.90
59923;DHT22;45778;51.142;3.732;2023-06-19T09:00:29;21.30;99.90
59923;DHT22;45778;51.142;3.732;2023-06-19T09:03:02;21.40;99.90
59923;DHT22;45778;51.142;3.732;2023-06-19T09:05:28;21.50;99.90
59923;DHT22;45778;51.142;3.732;2023-06-19T09:07:56;21.50;99.90
59923;DHT22;45778;51.142;3.732;2023-06-19T09:10:22;21.50;99.90
59923;DHT22;45778;51.142;3.732;2023-06-19T09:13:03;21.70;99.90
59923;DHT22;45778;51.142;3.732;2023-06-19T09:15:33;21.70;99.90
59923;DHT22;45778;51.142;3.732;2023-06-19T09:18:10;21.60;99.90
59923;DHT22;45778;51.142;3.732;2023-06-19T09:20:41;21.60;99.90
59923;DHT22;45778;51.142;3.732;2023-06-19T09:23:11;21.60;99.90
59923;DHT22;45778;51.142;3.732;2023-06-19T09:25:51;21.70;99.90
59923;DHT22;45778;51.142;3.732;2023-06-19T09:28:27;22.00;99.90
59923;DHT22;45778;51.142;3.732;2023-06-19T09:31:00;22.40;99.90
59923;DHT22;45778;51.142;3.732;2023-06-19T09:33:30;22.50;99.90
59923;DHT22;45778;51.142;3.732;2023-06-19T09:35:57;22.70;99.90
59923;DHT22;45778;51.142;3.732;2023-06-19T09:38:28;23.00;99.90
59923;DHT22;45778;51.142;3.732;2023-06-19T09:40:56;23.20;99.90
59923;DHT22;45778;51.142;3.732;2023-06-19T09:43:30;23.30;99.90
59923;DHT22;45778;51.142;3.732;2023-06-19T09:45:58;23.20;99.90
59923;DHT22;45778;51.142;3.732;2023-06-19T09:48:29;22.70;99.90
59923;DHT22;45778;51.142;3.732;2023-06-19T09:51:18;22.60;99.90
59923;DHT22;45778;51.142;3.732;2023-06-19T09:53:48;22.50;99.90
59923;DHT22;45778;51.142;3.732;2023-06-19T09:56:16;22.80;99.90
59923;DHT22;45778;51.142;3.732;2023-06-19T09:58:43;22.90;99.90
59923;DHT22;45778;51.142;3.732;2023-06-19T10:01:10;22.90;99.90
59923;DHT22;45778;51.142;3.732;2023-06-19T10:03:37;23.10;99.90
59923;DHT22;45778;51.142;3.732;2023-06-19T10:06:04;23.20;99.90
59923;DHT22;45778;51.142;3.732;2023-06-19T10:08:41;23.20;99.90
59923;DHT22;45778;51.142;3.732;2023-06-19T10:11:12;23.20;99.90
59923;DHT22;45778;51.142;3.732;2023-06-19T10:13:40;23.20;99.90
59923;DHT22;45778;51.142;3.732;2023-06-19T10:16:07;23.10;99.90
59923;DHT22;45778;51.142;3.732;2023-06-19T10:18:44;23.10;99.90
59923;DHT22;45778;51.142;3.732;2023-06-19T10:21:21;23.20;99.90
59923;DHT22;45778;51.142;3.732;2023-06-19T10:23:55;23.40;99.90
59923;DHT22;45778;51.142;3.732;2023-06-19T10:26:30;23.70;99.90
59923;DHT22;45778;51.142;3.732;2023-06-19T10:28:56;23.60;99.90
59923;DHT22;45778;51.142;3.732;2023-06-19T10:31:21;23.60;99.90
59923;DHT22;45778;51.142;3.732;2023-06-19T10:33:47;23.50;99.90
59923;DHT22;45778;51.142;3.732;2023-06-19T10:36:15;23.40;99.90
59923;DHT22;45778;51.142;3.732;2023-06-19T10:38:41;23.70;99.90
59923;DHT22;45778;51.142;3.732;2023-06-19T10:41:16;24.00;99.90
59923;DHT22;45778;51.142;3.732;2023-06-19T10:43:51;24.30;99.00
59923;DHT22;45778;51.142;3.732;2023-06-19T10:46:17;24.30;98.60
59923;DHT22;45778;51.142;3.732;2023-06-19T10:48:43;24.40;98.10
59923;DHT22;45778;51.142;3.732;2023-06-19T10:51:09;24.40;98.00
59923;DHT22;45778;51.142;3.732;2023-06-19T10:53:34;24.50;97.90
59923;DHT22;45778;51.142;3.732;2023-06-19T10:56:01;24.30;98.00
59923;DHT22;45778;51.142;3.732;2023-06-19T10:58:28;24.30;98.20
59923;DHT22;45778;51.142;3.732;2023-06-19T11:00:54;24.30;98.30
59923;DHT22;45778;51.142;3.732;2023-06-19T11:03:21;24.80;98.00
59923;DHT22;45778;51.142;3.732;2023-06-19T11:05:47;25.20;95.90
59923;DHT22;45778;51.142;3.732;2023-06-19T11:08:18;25.00;95.70
59923;DHT22;45778;51.142;3.732;2023-06-19T11:10:44;25.20;96.50
59923;DHT22;45778;51.142;3.732;2023-06-19T11:13:14;25.20;95.10
59923;DHT22;45778;51.142;3.732;2023-06-19T11:15:41;25.00;96.30
59923;DHT22;45778;51.142;3.732;2023-06-19T11:18:06;25.30;95.50
59923;DHT22;45778;51.142;3.732;2023-06-19T11:20:46;25.00;95.50
59923;DHT22;45778;51.142;3.732;2023-06-19T11:23:12;24.90;96.10
59923;DHT22;45778;51.142;3.732;2023-06-19T11:25:40;25.20;94.60
59923;DHT22;45778;51.142;3.732;2023-06-19T11:30:43;25.20;94.60
59923;DHT22;45778;51.142;3.732;2023-06-19T11:33:35;25.30;95.00
59923;DHT22;45778;51.142;3.732;2023-06-19T11:36:02;25.50;94.40
59923;DHT22;45778;51.142;3.732;2023-06-19T11:38:28;25.70;93.40
59923;DHT22;45778;51.142;3.732;2023-06-19T11:40:55;25.90;92.80
59923;DHT22;45778;51.142;3.732;2023-06-19T11:43:26;25.90;92.80
59923;DHT22;45778;51.142;3.732;2023-06-19T11:45:52;26.20;92.20
59923;DHT22;45778;51.142;3.732;2023-06-19T11:48:22;26.00;92.60
59923;DHT22;45778;51.142;3.732;2023-06-19T11:50:48;25.70;93.60
59923;DHT22;45778;51.142;3.732;2023-06-19T11:53:14;25.90;92.40
59923;DHT22;45778;51.142;3.732;2023-06-19T11:55:39;26.40;92.70
59923;DHT22;45778;51.142;3.732;2023-06-19T11:58:05;26.60;92.30
59923;DHT22;45778;51.142;3.732;2023-06-19T12:00:31;26.40;93.00
59923;DHT22;45778;51.142;3.732;2023-06-19T12:02:57;26.60;92.10
59923;DHT22;45778;51.142;3.732;2023-06-19T12:05:24;27.10;91.90
59923;DHT22;45778;51.142;3.732;2023-06-19T12:07:49;27.50;90.40
59923;DHT22;45778;51.142;3.732;2023-06-19T12:10:16;27.40;91.30
59923;DHT22;45778;51.142;3.732;2023-06-19T12:12:42;27.80;90.10
59923;DHT22;45778;51.142;3.732;2023-06-19T12:15:08;27.40;88.40
59923;DHT22;45778;51.142;3.732;2023-06-19T12:17:34;27.60;90.50
59923;DHT22;45778;51.142;3.732;2023-06-19T12:20:01;27.50;89.60
59923;DHT22;45778;51.142;3.732;2023-06-19T12:22:27;27.50;89.10
59923;DHT22;45778;51.142;3.732;2023-06-19T12:24:53;27.40;88.80
59923;DHT22;45778;51.142;3.732;2023-06-19T12:27:19;27.00;89.30
59923;DHT22;45778;51.142;3.732;2023-06-19T12:29:44;27.50;89.50
59923;DHT22;45778;51.142;3.732;2023-06-19T12:32:10;28.20;87.70
59923;DHT22;45778;51.142;3.732;2023-06-19T12:34:35;29.50;84.60
59923;DHT22;45778;51.142;3.732;2023-06-19T12:37:01;30.60;80.60
59923;DHT22;45778;51.142;3.732;2023-06-19T12:39:27;31.10;79.90
59923;DHT22;45778;51.142;3.732;2023-06-19T12:41:53;30.80;78.40
59923;DHT22;45778;51.142;3.732;2023-06-19T12:44:19;32.20;76.10
59923;DHT22;45778;51.142;3.732;2023-06-19T12:46:45;33.00;72.70
59923;DHT22;45778;51.142;3.732;2023-06-19T12:49:11;32.60;71.80
59923;DHT22;45778;51.142;3.732;2023-06-19T12:51:36;31.60;72.10
59923;DHT22;45778;51.142;3.732;2023-06-19T12:54:02;30.80;74.10
59923;DHT22;45778;51.142;3.732;2023-06-19T12:56:28;30.40;73.60
59923;DHT22;45778;51.142;3.732;2023-06-19T12:58:54;31.40;73.30
59923;DHT22;45778;51.142;3.732;2023-06-19T13:01:19;31.00;72.60
59923;DHT22;45778;51.142;3.732;2023-06-19T13:03:45;31.00;71.10
59923;DHT22;45778;51.142;3.732;2023-06-19T13:06:11;32.20;70.10
59923;DHT22;45778;51.142;3.732;2023-06-19T13:08:37;33.50;68.40
59923;DHT22;45778;51.142;3.732;2023-06-19T13:11:02;34.00;67.50
59923;DHT22;45778;51.142;3.732;2023-06-19T13:13:28;33.10;68.00
59923;DHT22;45778;51.142;3.732;2023-06-19T13:15:54;32.00;68.90
59923;DHT22;45778;51.142;3.732;2023-06-19T13:18:19;31.80;69.10
59923;DHT22;45778;51.142;3.732;2023-06-19T13:20:45;31.80;70.50
59923;DHT22;45778;51.142;3.732;2023-06-19T13:23:13;33.80;68.90
59923;DHT22;45778;51.142;3.732;2023-06-19T13:25:40;34.50;65.50
59923;DHT22;45778;51.142;3.732;2023-06-19T13:28:05;34.50;64.60
59923;DHT22;45778;51.142;3.732;2023-06-19T13:30:31;32.30;65.70
59923;DHT22;45778;51.142;3.732;2023-06-19T13:32:57;31.80;67.50
59923;DHT22;45778;51.142;3.732;2023-06-19T13:35:22;32.80;66.80
59923;DHT22;45778;51.142;3.732;2023-06-19T13:37:48;32.20;67.30
59923;DHT22;45778;51.142;3.732;2023-06-19T13:40:14;32.60;66.50
59923;DHT22;45778;51.142;3.732;2023-06-19T13:42:39;33.80;64.60
59923;DHT22;45778;51.142;3.732;2023-06-19T13:45:05;34.20;64.00
59923;DHT22;45778;51.142;3.732;2023-06-19T13:47:31;36.20;61.30
59923;DHT22;45778;51.142;3.732;2023-06-19T13:49:57;36.20;59.80
59923;DHT22;45778;51.142;3.732;2023-06-19T13:52:23;35.50;62.80
59923;DHT22;45778;51.142;3.732;2023-06-19T13:54:49;34.60;60.20
59923;DHT22;45778;51.142;3.732;2023-06-19T13:57:15;34.70;60.10
59923;DHT22;45778;51.142;3.732;2023-06-19T13:59:40;34.20;61.60
59923;DHT22;45778;51.142;3.732;2023-06-19T14:02:08;35.30;60.60
59923;DHT22;45778;51.142;3.732;2023-06-19T14:04:35;35.20;59.60
59923;DHT22;45778;51.142;3.732;2023-06-19T14:07:01;36.30;60.00
59923;DHT22;45778;51.142;3.732;2023-06-19T14:09:27;36.70;58.60
59923;DHT22;45778;51.142;3.732;2023-06-19T14:11:52;35.30;59.60
59923;DHT22;45778;51.142;3.732;2023-06-19T14:14:18;35.10;59.30
59923;DHT22;45778;51.142;3.732;2023-06-19T14:16:44;34.20;60.90
59923;DHT22;45778;51.142;3.732;2023-06-19T14:19:09;36.20;59.70
59923;DHT22;45778;51.142;3.732;2023-06-19T14:21:35;35.20;59.00
59923;DHT22;45778;51.142;3.732;2023-06-19T14:24:01;33.70;61.50
59923;DHT22;45778;51.142;3.732;2023-06-19T14:26:26;33.80;61.70
59923;DHT22;45778;51.142;3.732;2023-06-19T14:28:52;34.20;60.80
59923;DHT22;45778;51.142;3.732;2023-06-19T14:31:23;34.30;59.90
59923;DHT22;45778;51.142;3.732;2023-06-19T14:33:48;34.70;60.10
59923;DHT22;45778;51.142;3.732;2023-06-19T14:36:14;33.40;61.80
59923;DHT22;45778;51.142;3.732;2023-06-19T14:38:40;32.30;62.10
59923;DHT22;45778;51.142;3.732;2023-06-19T14:41:05;31.10;64.50
59923;DHT22;45778;51.142;3.732;2023-06-19T14:43:31;30.70;65.20
59923;DHT22;45778;51.142;3.732;2023-06-19T14:45:58;31.10;64.30
59923;DHT22;45778;51.142;3.732;2023-06-19T14:48:23;32.50;63.60
59923;DHT22;45778;51.142;3.732;2023-06-19T14:50:49;35.20;60.90
59923;DHT22;45778;51.142;3.732;2023-06-19T14:53:15;35.30;59.10
59923;DHT22;45778;51.142;3.732;2023-06-19T14:55:40;35.40;58.40
59923;DHT22;45778;51.142;3.732;2023-06-19T14:58:14;33.40;60.50
59923;DHT22;45778;51.142;3.732;2023-06-19T15:00:40;33.40;60.70
59923;DHT22;45778;51.142;3.732;2023-06-19T15:03:06;33.90;59.80
59923;DHT22;45778;51.142;3.732;2023-06-19T15:05:33;35.30;56.90
59923;DHT22;45778;51.142;3.732;2023-06-19T15:07:59;35.60;56.90
59923;DHT22;45778;51.142;3.732;2023-06-19T15:10:26;36.00;57.60
59923;DHT22;45778;51.142;3.732;2023-06-19T15:12:52;36.70;56.60
59923;DHT22;45778;51.142;3.732;2023-06-19T15:15:18;38.10;55.50
59923;DHT22;45778;51.142;3.732;2023-06-19T15:17:43;38.30;55.00
59923;DHT22;45778;51.142;3.732;2023-06-19T15:20:09;36.90;55.60
59923;DHT22;45778;51.142;3.732;2023-06-19T15:22:35;36.50;56.70
59923;DHT22;45778;51.142;3.732;2023-06-19T15:25:03;36.40;57.10
59923;DHT22;45778;51.142;3.732;2023-06-19T15:27:28;35.90;56.80
59923;DHT22;45778;51.142;3.732;2023-06-19T15:29:54;35.90;57.10
59923;DHT22;45778;51.142;3.732;2023-06-19T15:32:20;35.90;57.30